sensor_id;sensor_type;location;lat;lon;timestamp;temperature;humidity
12276;DHT22;6200;48.144;11.424;2024-01-30T00:01:19;0.70;99.90
12276;DHT22;6200;48.144;11.424;2024-01-30T00:03:45;0.60;99.90
12276;DHT22;6200;48.144;11.424;2024-01-30T00:06:11;0.50;99.90
12276;DHT22;6200;48.144;11.424;2024-01-30T00:08:37;0.50;99.90
12276;DHT22;6200;48.144;11.424;2024-01-30T00:11:02;0.50;99.90
12276;DHT22;6200;48.144;11.424;2024-01-30T00:13:28;0.50;99.90
12276;DHT22;6200;48.144;11.424;2024-01-30T00:15:53;0.50;99.90
12276;DHT22;6200;48.144;11.424;2024-01-30T00:18:19;0.50;99.90
12276;DHT22;6200;48.144;11.424;2024-01-30T00:20:44;0.40;99.90
12276;DHT22;6200;48.144;11.424;2024-01-30T00:23:10;0.40;99.90
12276;DHT22;6200;48.144;11.424;2024-01-30T00:25:36;0.40;99.90
12276;DHT22;6200;48.144;11.424;2024-01-30T00:28:01;0.40;99.90
12276;DHT22;6200;48.144;11.424;2024-01-30T00:30:27;0.50;99.90
12276;DHT22;6200;48.144;11.424;2024-01-30T00:32:53;0.50;99.90
12276;DHT22;6200;48.144;11.424;2024-01-30T00:35:19;0.50;99.90
12276;DHT22;6200;48.144;11.424;2024-01-30T00:37:44;0.40;99.90
12276;DHT22;6200;48.144;11.424;2024-01-30T00:40:10;0.40;99.90
12276;DHT22;6200;48.144;11.424;2024-01-30T00:42:41;0.40;99.90
12276;DHT22;6200;48.144;11.424;2024-01-30T00:45:12;0.50;99.90
12276;DHT22;6200;48.144;11.424;2024-01-30T00:47:37;0.50;99.90
12276;DHT22;6200;48.144;11.424;2024-01-30T00:50:03;0.60;99.90
12276;DHT22;6200;48.144;11.424;2024-01-30T00:52:28;0.60;99.90
12276;DHT22;6200;48.144;11.424;2024-01-30T00:54:54;0.50;99.90
12276;DHT22;6200;48.144;11.424;2024-01-30T00:57:19;0.50;99.90
12276;DHT22;6200;48.144;11.424;2024-01-30T00:59:45;0.50;99.90
12276;DHT22;6200;48.144;11.424;2024-01-30T01:02:10;0.40;99.90
12276;DHT22;6200;48.144;11.424;2024-01-30T01:04:36;0.40;99.90
12276;DHT22;6200;48.144;11.424;2024-01-30T01:07:01;0.40;99.90
12276;DHT22;6200;48.144;11.424;2024-01-30T01:09:27;0.40;99.90
12276;DHT22;6200;48.144;11.424;2024-01-30T01:11:52;0.30;99.90
12276;DHT22;6200;48.144;11.424;2024-01-30T01:14:18;0.30;99.90
12276;DHT22;6200;48.144;11.424;2024-01-30T01:16:43;0.10;99.90
12276;DHT22;6200;48.144;11.424;2024-01-30T01:19:09;0.10;99.90
12276;DHT22;6200;48.144;11.424;2024-01-30T01:21:35;0.10;99.90
12276;DHT22;6200;48.144;11.424;2024-01-30T01:24:00;0.80;99.90
12276;DHT22;6200;48.144;11.424;2024-01-30T01:26:25;0.10;99.90
12276;DHT22;6200;48.144;11.424;2024-01-30T01:28:51;0.10;99.90
12276;DHT22;6200;48.144;11.424;2024-01-30T01:31:16;0.20;99.90
12276;DHT22;6200;48.144;11.424;2024-01-30T01:33:43;0.30;99.90
12276;DHT22;6200;48.144;11.424;2024-01-30T01:36:08;0.30;99.90
12276;DHT22;6200;48.144;11.424;2024-01-30T01:38:34;0.30;99.90
12276;DHT22;6200;48.144;11.424;2024-01-30T01:40:59;0.30;99.90
12276;DHT22;6200;48.144;11.424;2024-01-30T01:43:25;0.20;99.90
12276;DHT22;6200;48.144;11.424;2024-01-30T01:45:50;0.20;99.90
12276;DHT22;6200;48.144;11.424;2024-01-30T01:48:16;0.00;99.90
12276;DHT22;6200;48.144;11.424;2024-01-30T01:50:42;0.00;99.90
12276;DHT22;6200;48.144;11.424;2024-01-30T01:53:08;0.00;99.90
12276;DHT22;6200;48.144;11.424;2024-01-30T01:55:35;0.00;99.90
12276;DHT22;6200;48.144;11.424;2024-01-30T01:58:01;0.00;99.90
12276;DHT22;6200;48.144;11.424;2024-01-30T02:00:26;0.00;99.90
12276;DHT22;6200;48.144;11.424;2024-01-30T02:02:53;0.00;99.90
12276;DHT22;6200;48.144;11.424;2024-01-30T02:05:19;0.00;99.90
12276;DHT22;6200;48.144;11.424;2024-01-30T02:07:46;0.00;99.90
12276;DHT22;6200;48.144;11.424;2024-01-30T02:10:12;0.10;99.90
12276;DHT22;6200;48.144;11.424;2024-01-30T02:12:37;0.00;99.90
12276;DHT22;6200;48.144;11.424;2024-01-30T02:15:04;0.00;99.90
12276;DHT22;6200;48.144;11.424;2024-01-30T02:17:30;0.10;99.90
12276;DHT22;6200;48.144;11.424;2024-01-30T02:19:56;0.10;99.90
12276;DHT22;6200;48.144;11.424;2024-01-30T02:22:22;0.10;99.90
12276;DHT22;6200;48.144;11.424;2024-01-30T02:24:48;0.20;99.90
12276;DHT22;6200;48.144;11.424;2024-01-30T02:27:13;0.20;99.90
12276;DHT22;6200;48.144;11.424;2024-01-30T02:29:39;0.20;99.90
12276;DHT22;6200;48.144;11.424;2024-01-30T02:32:05;0.20;99.90
12276;DHT22;6200;48.144;11.424;2024-01-30T02:34:31;0.10;99.90
12276;DHT22;6200;48.144;11.424;2024-01-30T02:36:56;0.10;99.90
12276;DHT22;6200;48.144;11.424;2024-01-30T02:39:22;0.10;99.90
12276;DHT22;6200;48.144;11.424;2024-01-30T02:41:47;0.10;99.90
12276;DHT22;6200;48.144;11.424;2024-01-30T02:44:13;0.10;99.90
12276;DHT22;6200;48.144;11.424;2024-01-30T02:46:38;0.00;99.90
12276;DHT22;6200;48.144;11.424;2024-01-30T02:49:04;0.10;99.90
12276;DHT22;6200;48.144;11.424;2024-01-30T02:51:29;0.00;99.90
12276;DHT22;6200;48.144;11.424;2024-01-30T02:53:54;-0.30;99.90
12276;DHT22;6200;48.144;11.424;2024-01-30T02:56:20;-0.30;99.90
12276;DHT22;6200;48.144;11.424;2024-01-30T02:58:45;-0.30;99.90
12276;DHT22;6200;48.144;11.424;2024-01-30T03:01:11;-0.40;99.90
12276;DHT22;6200;48.144;11.424;2024-01-30T03:03:36;-0.40;99.90
12276;DHT22;6200;48.144;11.424;2024-01-30T03:06:02;-0.40;99.90
12276;DHT22;6200;48.144;11.424;2024-01-30T03:08:28;-0.40;99.90
12276;DHT22;6200;48.144;11.424;2024-01-30T03:10:53;-0.40;99.90
12276;DHT22;6200;48.144;11.424;2024-01-30T03:13:19;-0.30;99.90
12276;DHT22;6200;48.144;11.424;2024-01-30T03:15:45;-0.30;99.90
12276;DHT22;6200;48.144;11.424;2024-01-30T03:18:10;-0.30;99.90
12276;DHT22;6200;48.144;11.424;2024-01-30T03:20:36;-0.20;99.90
12276;DHT22;6200;48.144;11.424;2024-01-30T03:23:01;-0.20;99.90
12276;DHT22;6200;48.144;11.424;2024-01-30T03:25:27;-0.10;99.90
12276;DHT22;6200;48.144;11.424;2024-01-30T03:27:52;-0.10;99.90
12276;DHT22;6200;48.144;11.424;2024-01-30T03:30:18;-0.10;99.90
12276;DHT22;6200;48.144;11.424;2024-01-30T03:32:43;-0.10;99.90
12276;DHT22;6200;48.144;11.424;2024-01-30T03:35:09;-0.10;99.90
12276;DHT22;6200;48.144;11.424;2024-01-30T03:37:35;-0.20;99.90
12276;DHT22;6200;48.144;11.424;2024-01-30T03:40:01;-0.30;99.90
12276;DHT22;6200;48.144;11.424;2024-01-30T03:42:27;-0.30;99.90
12276;DHT22;6200;48.144;11.424;2024-01-30T03:44:53;-0.30;99.90
12276;DHT22;6200;48.144;11.424;2024-01-30T03:47:20;-0.20;99.90
12276;DHT22;6200;48.144;11.424;2024-01-30T03:49:46;-0.30;99.90
12276;DHT22;6200;48.144;11.424;2024-01-30T03:52:12;-0.40;99.90
12276;DHT22;6200;48.144;11.424;2024-01-30T03:54:37;-0.30;99.90
12276;DHT22;6200;48.144;11.424;2024-01-30T03:57:03;-0.30;99.90
12276;DHT22;6200;48.144;11.424;2024-01-30T03:59:29;-0.30;99.90
12276;DHT22;6200;48.144;11.424;2024-01-30T04:01:54;-0.30;99.90
12276;DHT22;6200;48.144;11.424;2024-01-30T04:04:20;-0.40;99.90
12276;DHT22;6200;48.144;11.424;2024-01-30T04:06:46;-0.40;99.90
12276;DHT22;6200;48.144;11.424;2024-01-30T04:09:12;-0.30;99.90
12276;DHT22;6200;48.144;11.424;2024-01-30T04:11:39;-0.30;99.90
12276;DHT22;6200;48.144;11.424;2024-01-30T04:14:04;-0.30;99.90
12276;DHT22;6200;48.144;11.424;2024-01-30T04:16:30;-0.40;99.90
12276;DHT22;6200;48.144;11.424;2024-01-30T04:18:56;-0.30;99.90
12276;DHT22;6200;48.144;11.424;2024-01-30T04:21:22;-0.30;99.90
12276;DHT22;6200;48.144;11.424;2024-01-30T04:23:48;-0.30;99.90
12276;DHT22;6200;48.144;11.424;2024-01-30T04:26:14;-0.20;99.90
12276;DHT22;6200;48.144;11.424;2024-01-30T04:28:41;-0.20;99.90
12276;DHT22;6200;48.144;11.424;2024-01-30T04:31:07;-0.20;99.90
12276;DHT22;6200;48.144;11.424;2024-01-30T04:33:32;-0.30;99.90
12276;DHT22;6200;48.144;11.424;2024-01-30T04:35:58;-0.20;99.90
12276;DHT22;6200;48.144;11.424;2024-01-30T04:38:23;-0.20;99.90
12276;DHT22;6200;48.144;11.424;2024-01-30T04:40:49;-0.30;99.90
12276;DHT22;6200;48.144;11.424;2024-01-30T04:43:14;-0.30;99.90
12276;DHT22;6200;48.144;11.424;2024-01-30T04:45:41;-0.40;99.90
12276;DHT22;6200;48.144;11.424;2024-01-30T04:48:07;-0.40;99.90
12276;DHT22;6200;48.144;11.424;2024-01-30T04:50:32;-0.50;99.90
12276;DHT22;6200;48.144;11.424;2024-01-30T04:52:58;-0.40;99.90
12276;DHT22;6200;48.144;11.424;2024-01-30T04:55:23;-0.40;99.90
12276;DHT22;6200;48.144;11.424;2024-01-30T04:57:49;-0.30;99.90
12276;DHT22;6200;48.144;11.424;2024-01-30T05:00:15;-0.30;99.90
12276;DHT22;6200;48.144;11.424;2024-01-30T05:02:41;-0.30;99.90
12276;DHT22;6200;48.144;11.424;2024-01-30T05:05:06;-0.30;99.90
12276;DHT22;6200;48.144;11.424;2024-01-30T05:07:33;-0.40;99.90
12276;DHT22;6200;48.144;11.424;2024-01-30T05:09:58;-0.40;99.90
12276;DHT22;6200;48.144;11.424;2024-01-30T05:12:24;-0.40;99.90
12276;DHT22;6200;48.144;11.424;2024-01-30T05:14:49;-0.50;99.90
12276;DHT22;6200;48.144;11.424;2024-01-30T05:17:15;-0.60;99.90
12276;DHT22;6200;48.144;11.424;2024-01-30T05:19:40;-0.70;99.90
12276;DHT22;6200;48.144;11.424;2024-01-30T05:22:06;-0.60;99.90
12276;DHT22;6200;48.144;11.424;2024-01-30T05:24:31;-0.60;99.90
12276;DHT22;6200;48.144;11.424;2024-01-30T05:26:57;-0.60;99.90
12276;DHT22;6200;48.144;11.424;2024-01-30T05:29:23;-0.60;99.90
12276;DHT22;6200;48.144;11.424;2024-01-30T05:31:48;-0.50;99.90
12276;DHT22;6200;48.144;11.424;2024-01-30T05:34:14;-0.50;99.90
12276;DHT22;6200;48.144;11.424;2024-01-30T05:36:39;-0.40;99.90
12276;DHT22;6200;48.144;11.424;2024-01-30T05:39:05;-0.40;99.90
12276;DHT22;6200;48.144;11.424;2024-01-30T05:41:30;-0.30;99.90
12276;DHT22;6200;48.144;11.424;2024-01-30T05:43:56;-0.30;99.90
12276;DHT22;6200;48.144;11.424;2024-01-30T05:46:21;-0.20;99.90
12276;DHT22;6200;48.144;11.424;2024-01-30T05:48:47;-0.20;99.90
12276;DHT22;6200;48.144;11.424;2024-01-30T05:51:13;-0.30;99.90
12276;DHT22;6200;48.144;11.424;2024-01-30T05:53:38;-0.20;99.90
12276;DHT22;6200;48.144;11.424;2024-01-30T05:56:04;-0.20;99.90
12276;DHT22;6200;48.144;11.424;2024-01-30T05:58:30;-0.20;99.90
12276;DHT22;6200;48.144;11.424;2024-01-30T06:00:56;-0.30;99.90
12276;DHT22;6200;48.144;11.424;2024-01-30T06:03:23;-0.40;99.90
12276;DHT22;6200;48.144;11.424;2024-01-30T06:05:48;-0.40;99.90
12276;DHT22;6200;48.144;11.424;2024-01-30T06:08:14;-0.40;99.90
12276;DHT22;6200;48.144;11.424;2024-01-30T06:10:39;-0.50;99.90
12276;DHT22;6200;48.144;11.424;2024-01-30T06:13:05;-0.40;99.90
12276;DHT22;6200;48.144;11.424;2024-01-30T06:15:31;-0.40;99.90
12276;DHT22;6200;48.144;11.424;2024-01-30T06:17:58;-0.30;99.90
12276;DHT22;6200;48.144;11.424;2024-01-30T06:20:23;-0.40;99.90
12276;DHT22;6200;48.144;11.424;2024-01-30T06:22:49;-0.50;99.90
12276;DHT22;6200;48.144;11.424;2024-01-30T06:25:15;-0.50;99.90
12276;DHT22;6200;48.144;11.424;2024-01-30T06:27:42;-0.60;99.90
12276;DHT22;6200;48.144;11.424;2024-01-30T06:30:07;-0.70;99.90
12276;DHT22;6200;48.144;11.424;2024-01-30T06:32:33;-0.70;99.90
12276;DHT22;6200;48.144;11.424;2024-01-30T06:35:00;-0.70;99.90
12276;DHT22;6200;48.144;11.424;2024-01-30T06:37:26;-0.60;99.90
12276;DHT22;6200;48.144;11.424;2024-01-30T06:39:51;-0.60;99.90
12276;DHT22;6200;48.144;11.424;2024-01-30T06:42:18;-0.60;99.90
12276;DHT22;6200;48.144;11.424;2024-01-30T06:44:43;-0.40;99.90
12276;DHT22;6200;48.144;11.424;2024-01-30T06:47:09;-0.40;99.90
12276;DHT22;6200;48.144;11.424;2024-01-30T06:49:35;-0.30;99.90
12276;DHT22;6200;48.144;11.424;2024-01-30T06:52:06;-0.20;99.90
12276;DHT22;6200;48.144;11.424;2024-01-30T06:54:32;-0.20;99.90
12276;DHT22;6200;48.144;11.424;2024-01-30T06:56:58;-0.30;99.90
12276;DHT22;6200;48.144;11.424;2024-01-30T06:59:24;-0.30;99.90
12276;DHT22;6200;48.144;11.424;2024-01-30T07:01:49;-0.20;99.90
12276;DHT22;6200;48.144;11.424;2024-01-30T07:04:15;-0.30;99.90
12276;DHT22;6200;48.144;11.424;2024-01-30T07:06:41;-0.40;99.90
12276;DHT22;6200;48.144;11.424;2024-01-30T07:09:07;-0.40;99.90
12276;DHT22;6200;48.144;11.424;2024-01-30T07:11:32;-1.70;99.90
12276;DHT22;6200;48.144;11.424;2024-01-30T07:13:58;-0.40;99.90
12276;DHT22;6200;48.144;11.424;2024-01-30T07:16:23;-0.40;99.90
12276;DHT22;6200;48.144;11.424;2024-01-30T07:18:49;-0.40;99.90
12276;DHT22;6200;48.144;11.424;2024-01-30T07:21:15;-0.30;99.90
12276;DHT22;6200;48.144;11.424;2024-01-30T07:23:40;-0.30;99.90
12276;DHT22;6200;48.144;11.424;2024-01-30T07:26:07;-0.20;99.90
12276;DHT22;6200;48.144;11.424;2024-01-30T07:28:34;-0.20;99.90
12276;DHT22;6200;48.144;11.424;2024-01-30T07:31:00;-0.20;99.90
12276;DHT22;6200;48.144;11.424;2024-01-30T07:33:25;-0.20;99.90
12276;DHT22;6200;48.144;11.424;2024-01-30T07:35:52;-0.20;99.90
12276;DHT22;6200;48.144;11.424;2024-01-30T07:38:18;-0.20;99.90
12276;DHT22;6200;48.144;11.424;2024-01-30T07:40:44;-0.10;99.90
12276;DHT22;6200;48.144;11.424;2024-01-30T07:43:09;-0.10;99.90
12276;DHT22;6200;48.144;11.424;2024-01-30T07:45:35;-0.10;99.90
12276;DHT22;6200;48.144;11.424;2024-01-30T07:48:02;-0.10;99.90
12276;DHT22;6200;48.144;11.424;2024-01-30T07:50:28;-0.10;99.90
12276;DHT22;6200;48.144;11.424;2024-01-30T07:52:55;-0.10;99.90
12276;DHT22;6200;48.144;11.424;2024-01-30T07:55:21;0.00;99.90
12276;DHT22;6200;48.144;11.424;2024-01-30T07:57:51;0.10;99.90
12276;DHT22;6200;48.144;11.424;2024-01-30T08:00:18;0.10;99.90
12276;DHT22;6200;48.144;11.424;2024-01-30T08:02:44;0.20;99.90
12276;DHT22;6200;48.144;11.424;2024-01-30T08:05:10;0.30;99.90
12276;DHT22;6200;48.144;11.424;2024-01-30T08:07:37;0.40;99.90
12276;DHT22;6200;48.144;11.424;2024-01-30T08:10:03;0.50;99.90
12276;DHT22;6200;48.144;11.424;2024-01-30T08:12:29;0.60;99.90
12276;DHT22;6200;48.144;11.424;2024-01-30T08:14:54;0.70;99.90
12276;DHT22;6200;48.144;11.424;2024-01-30T08:17:20;0.80;99.90
12276;DHT22;6200;48.144;11.424;2024-01-30T08:19:45;0.80;99.90
12276;DHT22;6200;48.144;11.424;2024-01-30T08:22:12;0.90;99.90
12276;DHT22;6200;48.144;11.424;2024-01-30T08:24:37;1.00;99.90
12276;DHT22;6200;48.144;11.424;2024-01-30T08:27:03;1.10;99.90
12276;DHT22;6200;48.144;11.424;2024-01-30T08:29:30;1.20;99.90
12276;DHT22;6200;48.144;11.424;2024-01-30T08:31:55;1.30;99.90
12276;DHT22;6200;48.144;11.424;2024-01-30T08:34:21;1.50;99.90
12276;DHT22;6200;48.144;11.424;2024-01-30T08:36:46;1.60;99.90
12276;DHT22;6200;48.144;11.424;2024-01-30T08:39:13;1.70;99.90
12276;DHT22;6200;48.144;11.424;2024-01-30T08:41:38;1.90;99.90
12276;DHT22;6200;48.144;11.424;2024-01-30T08:44:04;2.00;99.90
12276;DHT22;6200;48.144;11.424;2024-01-30T08:46:30;2.10;99.90
12276;DHT22;6200;48.144;11.424;2024-01-30T08:48:56;2.20;99.90
12276;DHT22;6200;48.144;11.424;2024-01-30T08:51:21;2.40;99.90
12276;DHT22;6200;48.144;11.424;2024-01-30T08:53:47;2.60;99.90
12276;DHT22;6200;48.144;11.424;2024-01-30T08:56:12;2.80;99.90
12276;DHT22;6200;48.144;11.424;2024-01-30T08:58:39;3.00;99.90
12276;DHT22;6200;48.144;11.424;2024-01-30T09:01:05;3.20;99.90
12276;DHT22;6200;48.144;11.424;2024-01-30T09:03:31;3.40;99.90
12276;DHT22;6200;48.144;11.424;2024-01-30T09:05:57;3.70;99.90
12276;DHT22;6200;48.144;11.424;2024-01-30T09:08:22;3.90;99.90
12276;DHT22;6200;48.144;11.424;2024-01-30T09:10:48;4.20;99.90
12276;DHT22;6200;48.144;11.424;2024-01-30T09:13:15;4.50;99.90
12276;DHT22;6200;48.144;11.424;2024-01-30T09:15:41;4.90;99.90
12276;DHT22;6200;48.144;11.424;2024-01-30T09:18:07;5.20;99.90
12276;DHT22;6200;48.144;11.424;2024-01-30T09:20:33;5.60;99.90
12276;DHT22;6200;48.144;11.424;2024-01-30T09:22:58;6.00;99.90
12276;DHT22;6200;48.144;11.424;2024-01-30T09:25:24;6.30;99.90
12276;DHT22;6200;48.144;11.424;2024-01-30T09:27:49;6.40;99.90
12276;DHT22;6200;48.144;11.424;2024-01-30T09:30:15;6.70;99.90
12276;DHT22;6200;48.144;11.424;2024-01-30T09:32:41;6.90;99.90
12276;DHT22;6200;48.144;11.424;2024-01-30T09:35:07;7.00;99.90
12276;DHT22;6200;48.144;11.424;2024-01-30T09:37:32;7.30;99.90
12276;DHT22;6200;48.144;11.424;2024-01-30T09:39:58;7.60;99.90
12276;DHT22;6200;48.144;11.424;2024-01-30T09:42:43;7.90;99.90
12276;DHT22;6200;48.144;11.424;2024-01-30T09:45:13;8.20;99.90
12276;DHT22;6200;48.144;11.424;2024-01-30T09:47:43;8.40;99.90
12276;DHT22;6200;48.144;11.424;2024-01-30T09:50:13;8.70;99.90
12276;DHT22;6200;48.144;11.424;2024-01-30T09:52:39;8.90;99.90
12276;DHT22;6200;48.144;11.424;2024-01-30T09:55:06;9.10;99.90
12276;DHT22;6200;48.144;11.424;2024-01-30T09:57:34;9.20;99.90
12276;DHT22;6200;48.144;11.424;2024-01-30T09:59:59;9.40;99.90
12276;DHT22;6200;48.144;11.424;2024-01-30T10:02:25;9.70;99.90
12276;DHT22;6200;48.144;11.424;2024-01-30T10:04:51;9.80;99.90
12276;DHT22;6200;48.144;11.424;2024-01-30T10:07:18;10.20;99.90
12276;DHT22;6200;48.144;11.424;2024-01-30T10:09:44;10.20;99.90
12276;DHT22;6200;48.144;11.424;2024-01-30T10:12:09;10.60;99.90
12276;DHT22;6200;48.144;11.424;2024-01-30T10:14:39;10.90;99.90
12276;DHT22;6200;48.144;11.424;2024-01-30T10:17:04;11.10;99.90
12276;DHT22;6200;48.144;11.424;2024-01-30T10:19:31;11.20;99.60
12276;DHT22;6200;48.144;11.424;2024-01-30T10:21:57;11.60;99.60
12276;DHT22;6200;48.144;11.424;2024-01-30T10:24:26;12.30;95.20
12276;DHT22;6200;48.144;11.424;2024-01-30T10:26:52;12.80;95.30
12276;DHT22;6200;48.144;11.424;2024-01-30T10:29:18;12.90;95.50
12276;DHT22;6200;48.144;11.424;2024-01-30T10:31:43;13.10;92.40
12276;DHT22;6200;48.144;11.424;2024-01-30T10:34:09;13.00;94.10
12276;DHT22;6200;48.144;11.424;2024-01-30T10:36:42;13.00;92.60
12276;DHT22;6200;48.144;11.424;2024-01-30T10:39:11;13.00;93.10
12276;DHT22;6200;48.144;11.424;2024-01-30T10:41:45;13.00;91.60
12276;DHT22;6200;48.144;11.424;2024-01-30T10:44:17;13.00;92.80
12276;DHT22;6200;48.144;11.424;2024-01-30T10:46:47;13.00;90.30
12276;DHT22;6200;48.144;11.424;2024-01-30T10:49:15;13.00;92.60
12276;DHT22;6200;48.144;11.424;2024-01-30T10:51:41;13.00;92.80
12276;DHT22;6200;48.144;11.424;2024-01-30T10:54:07;12.90;93.20
12276;DHT22;6200;48.144;11.424;2024-01-30T10:56:33;13.00;92.00
12276;DHT22;6200;48.144;11.424;2024-01-30T10:59:00;13.30;92.90
12276;DHT22;6200;48.144;11.424;2024-01-30T11:01:28;13.70;90.00
12276;DHT22;6200;48.144;11.424;2024-01-30T11:03:54;14.10;85.80
12276;DHT22;6200;48.144;11.424;2024-01-30T11:06:23;14.20;86.30
12276;DHT22;6200;48.144;11.424;2024-01-30T11:09:11;14.50;85.90
12276;DHT22;6200;48.144;11.424;2024-01-30T11:12:06;14.70;89.90
12276;DHT22;6200;48.144;11.424;2024-01-30T11:14:37;15.00;87.50
12276;DHT22;6200;48.144;11.424;2024-01-30T11:17:05;15.10;83.60
12276;DHT22;6200;48.144;11.424;2024-01-30T11:19:31;15.20;85.30
12276;DHT22;6200;48.144;11.424;2024-01-30T11:21:57;15.30;84.90
12276;DHT22;6200;48.144;11.424;2024-01-30T11:24:25;15.30;85.00
12276;DHT22;6200;48.144;11.424;2024-01-30T11:26:58;15.40;86.40
12276;DHT22;6200;48.144;11.424;2024-01-30T11:29:25;15.40;85.50
12276;DHT22;6200;48.144;11.424;2024-01-30T11:31:55;15.20;89.90
12276;DHT22;6200;48.144;11.424;2024-01-30T11:34:21;15.50;84.70
12276;DHT22;6200;48.144;11.424;2024-01-30T11:36:57;15.50;89.50
12276;DHT22;6200;48.144;11.424;2024-01-30T11:39:26;15.70;84.60
12276;DHT22;6200;48.144;11.424;2024-01-30T11:41:52;15.70;84.60
12276;DHT22;6200;48.144;11.424;2024-01-30T11:44:19;15.90;85.20
12276;DHT22;6200;48.144;11.424;2024-01-30T11:46:49;16.00;82.70
12276;DHT22;6200;48.144;11.424;2024-01-30T11:49:18;16.10;84.40
12276;DHT22;6200;48.144;11.424;2024-01-30T11:51:47;16.10;82.20
12276;DHT22;6200;48.144;11.424;2024-01-30T11:54:15;16.10;82.60
12276;DHT22;6200;48.144;11.424;2024-01-30T11:56:41;16.20;80.70
12276;DHT22;6200;48.144;11.424;2024-01-30T11:59:07;16.30;84.10
12276;DHT22;6200;48.144;11.424;2024-01-30T12:01:32;16.10;84.60
12276;DHT22;6200;48.144;11.424;2024-01-30T12:03:59;15.90;83.90
12276;DHT22;6200;48.144;11.424;2024-01-30T12:06:25;15.70;84.70
12276;DHT22;6200;48.144;11.424;2024-01-30T12:08:58;15.50;86.20
12276;DHT22;6200;48.144;11.424;2024-01-30T12:11:24;15.20;88.00
12276;DHT22;6200;48.144;11.424;2024-01-30T12:13:51;15.20;80.80
12276;DHT22;6200;48.144;11.424;2024-01-30T12:16:18;15.10;82.70
12276;DHT22;6200;48.144;11.424;2024-01-30T12:18:43;15.00;88.60
12276;DHT22;6200;48.144;11.424;2024-01-30T12:21:09;15.10;85.30
12276;DHT22;6200;48.144;11.424;2024-01-30T12:23:35;15.20;84.60
12276;DHT22;6200;48.144;11.424;2024-01-30T12:26:01;15.40;84.20
12276;DHT22;6200;48.144;11.424;2024-01-30T12:28:29;15.60;84.10
12276;DHT22;6200;48.144;11.424;2024-01-30T12:30:56;15.80;72.70
12276;DHT22;6200;48.144;11.424;2024-01-30T12:33:26;15.80;85.10
12276;DHT22;6200;48.144;11.424;2024-01-30T12:35:52;15.80;85.10
12276;DHT22;6200;48.144;11.424;2024-01-30T12:38:17;15.80;83.50
12276;DHT22;6200;48.144;11.424;2024-01-30T12:40:43;15.70;81.80
12276;DHT22;6200;48.144;11.424;2024-01-30T12:43:09;15.50;79.10
12276;DHT22;6200;48.144;11.424;2024-01-30T12:45:36;15.50;77.70
12276;DHT22;6200;48.144;11.424;2024-01-30T12:48:02;15.50;80.10
12276;DHT22;6200;48.144;11.424;2024-01-30T12:50:27;15.30;86.00
12276;DHT22;6200;48.144;11.424;2024-01-30T12:52:53;15.20;86.40
12276;DHT22;6200;48.144;11.424;2024-01-30T12:55:18;15.20;85.50
12276;DHT22;6200;48.144;11.424;2024-01-30T12:57:44;15.20;86.90
12276;DHT22;6200;48.144;11.424;2024-01-30T13:00:10;15.10;85.40
12276;DHT22;6200;48.144;11.424;2024-01-30T13:02:36;15.10;88.90
12276;DHT22;6200;48.144;11.424;2024-01-30T13:05:03;15.00;88.00
12276;DHT22;6200;48.144;11.424;2024-01-30T13:07:29;15.10;88.50
12276;DHT22;6200;48.144;11.424;2024-01-30T13:09:54;15.00;88.00
12276;DHT22;6200;48.144;11.424;2024-01-30T13:12:20;15.10;84.30
12276;DHT22;6200;48.144;11.424;2024-01-30T13:14:46;15.00;82.40
12276;DHT22;6200;48.144;11.424;2024-01-30T13:17:11;15.00;86.80
12276;DHT22;6200;48.144;11.424;2024-01-30T13:19:37;14.60;89.60
12276;DHT22;6200;48.144;11.424;2024-01-30T13:22:02;14.50;89.10
12276;DHT22;6200;48.144;11.424;2024-01-30T13:24:28;14.40;90.00
12276;DHT22;6200;48.144;11.424;2024-01-30T13:26:54;14.40;88.30
12276;DHT22;6200;48.144;11.424;2024-01-30T13:29:19;14.10;90.50
12276;DHT22;6200;48.144;11.424;2024-01-30T13:31:45;14.10;90.30
12276;DHT22;6200;48.144;11.424;2024-01-30T13:34:12;14.10;86.70
12276;DHT22;6200;48.144;11.424;2024-01-30T13:36:38;14.10;85.00
12276;DHT22;6200;48.144;11.424;2024-01-30T13:39:03;14.00;85.10
12276;DHT22;6200;48.144;11.424;2024-01-30T13:41:33;13.90;87.50
12276;DHT22;6200;48.144;11.424;2024-01-30T13:43:58;13.80;87.20
12276;DHT22;6200;48.144;11.424;2024-01-30T13:46:23;13.70;87.90
12276;DHT22;6200;48.144;11.424;2024-01-30T13:48:50;13.60;90.50
12276;DHT22;6200;48.144;11.424;2024-01-30T13:51:15;13.50;90.00
12276;DHT22;6200;48.144;11.424;2024-01-30T13:53:42;13.40;90.70
12276;DHT22;6200;48.144;11.424;2024-01-30T13:56:08;13.30;91.00
12276;DHT22;6200;48.144;11.424;2024-01-30T13:58:33;13.30;90.50
12276;DHT22;6200;48.144;11.424;2024-01-30T14:01:00;13.30;90.30
12276;DHT22;6200;48.144;11.424;2024-01-30T14:03:25;13.30;90.30
12276;DHT22;6200;48.144;11.424;2024-01-30T14:05:51;13.20;91.60
12276;DHT22;6200;48.144;11.424;2024-01-30T14:08:16;13.10;92.00
12276;DHT22;6200;48.144;11.424;2024-01-30T14:10:42;13.00;92.40
12276;DHT22;6200;48.144;11.424;2024-01-30T14:13:07;13.00;91.80
12276;DHT22;6200;48.144;11.424;2024-01-30T14:15:33;13.00;89.90
12276;DHT22;6200;48.144;11.424;2024-01-30T14:17:58;12.90;90.10
12276;DHT22;6200;48.144;11.424;2024-01-30T14:20:24;12.80;91.40
12276;DHT22;6200;48.144;11.424;2024-01-30T14:22:49;12.80;91.70
12276;DHT22;6200;48.144;11.424;2024-01-30T14:25:15;12.70;92.00
12276;DHT22;6200;48.144;11.424;2024-01-30T14:27:41;12.70;92.20
12276;DHT22;6200;48.144;11.424;2024-01-30T14:30:10;12.60;93.10
12276;DHT22;6200;48.144;11.424;2024-01-30T14:32:36;12.60;93.00
12276;DHT22;6200;48.144;11.424;2024-01-30T14:35:04;12.50;94.00
12276;DHT22;6200;48.144;11.424;2024-01-30T14:37:29;12.40;92.30
12276;DHT22;6200;48.144;11.424;2024-01-30T14:39:55;12.40;93.40
12276;DHT22;6200;48.144;11.424;2024-01-30T14:42:21;12.40;93.30
12276;DHT22;6200;48.144;11.424;2024-01-30T14:44:46;12.40;92.00
12276;DHT22;6200;48.144;11.424;2024-01-30T14:47:12;12.40;92.60
12276;DHT22;6200;48.144;11.424;2024-01-30T14:49:38;12.30;93.90
12276;DHT22;6200;48.144;11.424;2024-01-30T14:52:04;12.20;94.20
12276;DHT22;6200;48.144;11.424;2024-01-30T14:54:30;12.20;94.30
12276;DHT22;6200;48.144;11.424;2024-01-30T14:56:55;12.10;93.90
12276;DHT22;6200;48.144;11.424;2024-01-30T14:59:21;12.00;93.70
12276;DHT22;6200;48.144;11.424;2024-01-30T15:01:47;11.90;94.70
12276;DHT22;6200;48.144;11.424;2024-01-30T15:04:13;11.90;94.70
12276;DHT22;6200;48.144;11.424;2024-01-30T15:06:39;11.80;94.10
12276;DHT22;6200;48.144;11.424;2024-01-30T15:09:13;11.70;94.20
12276;DHT22;6200;48.144;11.424;2024-01-30T15:11:43;11.60;95.60
12276;DHT22;6200;48.144;11.424;2024-01-30T15:14:09;11.60;96.20
12276;DHT22;6200;48.144;11.424;2024-01-30T15:16:35;11.40;96.50
12276;DHT22;6200;48.144;11.424;2024-01-30T15:19:01;11.40;96.70
12276;DHT22;6200;48.144;11.424;2024-01-30T15:21:27;11.20;96.70
12276;DHT22;6200;48.144;11.424;2024-01-30T15:23:54;11.10;96.10
12276;DHT22;6200;48.144;11.424;2024-01-30T15:26:20;11.10;96.10
12276;DHT22;6200;48.144;11.424;2024-01-30T15:28:46;11.00;96.50